Time;durP1;ratioP1;P1;durP2;ratioP2;P2;SDS_P1;SDS_P2;PMS_P1;PMS_P2;Temp;Humidity;BMP_temperature;BMP_pressure;BME280_temperature;BME280_humidity;BME280_pressure;Samples;Min_cycle;Max_cycle;Signal;HPM_P1;HPM_P2
2021/01/13 00:01:28;;;;;;;14.90;9.57;;;4.50;94.40;;;3.98;88.34;98090.25;5048797;28;21221;-72
2021/01/13 00:03:56;;;;;;;12.50;9.43;;;4.50;94.50;;;4.00;89.25;98093.59;5042804;28;20624;-72
2021/01/13 00:06:23;;;;;;;15.90;10.60;;;4.50;94.50;;;4.00;88.84;98091.88;5043386;28;21295;-72
2021/01/13 00:08:51;;;;;;;23.90;14.73;;;4.50;94.50;;;3.96;87.57;98098.06;5050594;28;20635;-72
2021/01/13 00:11:18;;;;;;;26.30;14.77;;;4.40;94.10;;;3.89;88.28;98095.81;5048557;28;21038;-72
2021/01/13 00:13:47;;;;;;;20.00;13.27;;;4.40;94.00;;;3.86;88.57;98098.50;5041556;28;21034;-72
2021/01/13 00:16:15;;;;;;;23.83;13.63;;;4.40;94.10;;;3.83;88.61;98093.47;5046617;28;20628;-72
2021/01/13 00:18:43;;;;;;;21.33;12.87;;;4.30;94.10;;;3.81;88.74;98092.72;5050713;28;21201;-72
2021/01/13 00:21:14;;;;;;;15.17;9.63;;;4.40;94.30;;;3.82;88.96;98090.06;5047640;28;20684;-72
2021/01/13 00:23:45;;;;;;;13.07;8.43;;;4.40;94.40;;;3.82;88.68;98094.41;5042684;28;20629;-72
2021/01/13 00:26:21;;;;;;;12.90;9.53;;;4.40;94.50;;;3.84;89.62;98098.56;5049471;28;20706;-72
2021/01/13 00:28:50;;;;;;;12.93;9.30;;;4.40;94.70;;;3.86;89.29;98088.19;5050678;28;20634;-72
2021/01/13 00:31:18;;;;;;;14.50;9.37;;;4.40;94.80;;;3.89;89.88;98091.50;5046463;28;20636;-72
2021/01/13 00:33:50;;;;;;;13.43;9.77;;;4.40;94.80;;;3.90;89.47;98102.66;5049255;28;20637;-72
2021/01/13 00:36:21;;;;;;;13.17;10.20;;;4.50;94.80;;;3.91;88.55;98099.16;5047451;28;20710;-72
2021/01/13 00:38:49;;;;;;;16.70;10.53;;;4.50;94.70;;;3.92;88.71;98098.25;5048053;28;21207;-72
2021/01/13 00:41:17;;;;;;;15.10;9.47;;;4.40;94.60;;;3.94;89.85;98104.16;5048696;28;21289;-72
2021/01/13 00:43:45;;;;;;;13.70;10.83;;;4.40;94.50;;;3.92;89.34;98111.97;5031116;28;20720;-72
2021/01/13 00:46:13;;;;;;;16.03;11.30;;;4.40;94.40;;;3.91;89.25;98114.63;5045238;28;21156;-72
2021/01/13 00:48:41;;;;;;;18.07;11.80;;;4.40;94.40;;;3.91;89.36;98114.63;5050347;28;20643;-72
2021/01/13 00:51:09;;;;;;;19.90;11.93;;;4.40;94.80;;;3.89;88.78;98117.28;5050551;28;21181;-72
2021/01/13 00:53:36;;;;;;;21.87;14.40;;;4.40;94.50;;;3.91;88.58;98119.78;5047933;28;20640;-72
2021/01/13 00:56:05;;;;;;;18.93;13.10;;;4.40;94.90;;;3.90;88.94;98115.53;5048553;28;20678;-72
2021/01/13 00:58:33;;;;;;;23.80;14.07;;;4.40;94.50;;;3.89;88.94;98121.59;5050011;28;20632;-72
2021/01/13 01:01:00;;;;;;;17.70;12.20;;;4.40;94.40;;;3.84;88.67;98123.53;5033816;28;20952;-72
2021/01/13 01:03:29;;;;;;;14.33;9.80;;;4.30;94.40;;;3.84;89.06;98136.44;5040489;28;20637;-72
2021/01/13 01:05:58;;;;;;;16.03;9.90;;;4.40;94.50;;;3.83;89.81;98132.16;5039267;28;20725;-72
2021/01/13 01:08:26;;;;;;;12.90;8.97;;;4.40;94.60;;;3.80;89.92;98137.44;5052682;28;20625;-72
2021/01/13 01:10:57;;;;;;;13.40;10.20;;;4.30;94.60;;;3.80;89.76;98137.44;5044140;28;20727;-72
2021/01/13 01:13:25;;;;;;;13.23;9.67;;;4.40;94.70;;;3.78;89.95;98139.25;5048302;28;20633;-72
2021/01/13 01:15:52;;;;;;;14.13;9.60;;;4.30;94.60;;;3.76;89.31;98146.22;5039406;28;20747;-72
2021/01/13 01:18:20;;;;;;;16.47;9.83;;;4.30;94.60;;;3.74;90.12;98148.88;5053583;28;21211;-72
2021/01/13 01:20:48;;;;;;;10.53;8.50;;;4.40;94.70;;;3.72;89.43;98144.66;5049844;28;20686;-72
2021/01/13 01:23:16;;;;;;;12.63;9.23;;;4.30;94.60;;;3.72;89.00;98146.41;5050045;28;20640;-72
2021/01/13 01:25:45;;;;;;;14.93;10.40;;;4.30;94.50;;;3.69;88.79;98149.13;5068898;28;21223;-72
2021/01/13 01:28:12;;;;;;;12.10;9.83;;;4.30;94.80;;;3.68;88.71;98165.47;5051544;28;20667;-72
2021/01/13 01:30:40;;;;;;;15.13;9.80;;;4.20;94.30;;;3.64;88.96;98163.91;5053268;28;21253;-72
2021/01/13 01:33:08;;;;;;;13.83;9.80;;;4.20;94.30;;;3.62;88.19;98165.72;5053160;28;20683;-72
2021/01/13 01:35:35;;;;;;;13.03;10.33;;;4.20;94.30;;;3.61;89.01;98166.59;5051316;28;20632;-72
2021/01/13 01:38:04;;;;;;;13.33;10.60;;;4.20;94.30;;;3.56;88.34;98173.69;5052284;28;21191;-72
2021/01/13 01:40:31;;;;;;;15.77;10.33;;;4.10;94.10;;;3.54;89.00;98163.44;5051002;28;20751;-72
2021/01/13 01:42:59;;;;;;;19.27;11.10;;;4.10;94.00;;;3.53;88.53;98168.66;5052063;28;20691;-72
2021/01/13 01:45:29;;;;;;;15.10;11.00;;;4.10;94.00;;;3.50;88.39;98173.94;5052719;28;20640;-72
2021/01/13 01:48:17;;;;;;;16.00;11.60;;;4.10;94.00;;;3.49;87.74;98180.00;5053513;28;20640;-72
2021/01/13 01:50:46;;;;;;;14.20;9.90;;;4.10;94.00;;;3.46;88.37;98183.53;5034661;28;21057;-72
2021/01/13 01:53:43;;;;;;;14.67;10.80;;;4.00;93.90;;;3.44;87.91;98182.75;5051517;28;20723;-72
2021/01/13 01:56:24;;;;;;;14.40;10.00;;;4.00;93.90;;;3.44;88.63;98193.06;5036741;28;20670;-72
2021/01/13 01:59:04;;;;;;;15.00;10.20;;;4.00;94.10;;;3.47;88.63;98195.53;5052127;28;20640;-72
2021/01/13 02:01:37;;;;;;;15.07;10.50;;;4.00;94.10;;;3.46;88.50;98191.25;5052083;28;21062;-72
2021/01/13 02:04:18;;;;;;;14.27;10.90;;;4.00;94.10;;;3.40;88.18;98193.25;5047401;28;21091;-72
2021/01/13 02:07:30;;;;;;;13.43;10.00;;;4.00;93.90;;;3.38;88.34;98207.91;5036539;28;20641;-72
2021/01/13 02:10:05;;;;;;;12.80;9.20;;;3.90;93.80;;;3.34;88.25;98209.78;5051235;28;20658;-72
2021/01/13 02:12:35;;;;;;;14.50;10.53;;;3.90;93.80;;;3.32;88.44;98201.28;5046636;28;20739;-72
2021/01/13 02:15:07;;;;;;;14.10;10.17;;;3.90;93.90;;;3.27;87.78;98195.44;5049708;28;20644;-72
2021/01/13 02:17:37;;;;;;;29.37;10.63;;;3.80;93.90;;;3.17;88.23;98190.69;5052084;28;20727;-72
2021/01/13 02:20:16;;;;;;;17.97;11.50;;;3.70;93.60;;;3.11;87.88;98200.38;5051234;28;20636;-72
2021/01/13 02:23:03;;;;;;;24.00;11.70;;;3.70;93.50;;;3.11;88.05;98196.09;5051897;28;20683;-72
2021/01/13 02:26:40;;;;;;;29.03;12.00;;;3.60;93.60;;;3.10;88.41;98204.72;5048466;28;21315;-72
2021/01/13 02:29:27;;;;;;;17.70;11.23;;;3.70;93.80;;;3.11;89.01;98200.38;5023930;28;20621;-72
2021/01/13 02:32:07;;;;;;;32.07;12.50;;;3.70;94.20;;;3.08;88.34;98205.66;5044050;28;20628;-72
2021/01/13 02:34:42;;;;;;;30.53;12.50;;;3.60;94.10;;;3.04;89.32;98197.22;5044154;28;20639;-72
2021/01/13 02:37:41;;;;;;;49.40;11.87;;;3.60;94.20;;;3.05;89.14;98196.31;5050925;28;20636;-72
2021/01/13 02:40:19;;;;;;;22.97;10.30;;;3.60;94.40;;;3.10;89.05;98203.88;5051919;28;20648;-72
2021/01/13 02:42:59;;;;;;;19.90;11.27;;;3.60;94.50;;;3.13;89.79;98211.47;5051269;28;20656;-72
2021/01/13 02:45:28;;;;;;;16.27;11.60;;;3.70;94.60;;;3.12;89.94;98207.22;5043768;28;20713;-72
2021/01/13 02:48:15;;;;;;;17.93;11.67;;;3.70;94.70;;;3.09;90.04;98208.16;5045621;28;20640;-72
2021/01/13 02:50:50;;;;;;;17.53;13.10;;;3.60;94.90;;;3.11;89.99;98208.97;5050083;28;21007;-72
2021/01/13 02:53:55;;;;;;;15.37;10.90;;;3.70;95.00;;;3.09;89.34;98208.16;5051245;28;20693;-72
2021/01/13 02:56:43;;;;;;;20.43;13.90;;;3.70;94.90;;;3.07;88.95;98209.16;5051372;28;20678;-72
2021/01/13 02:59:13;;;;;;;18.97;13.67;;;3.60;94.70;;;3.08;89.40;98211.66;5045129;28;20653;-72
2021/01/13 03:01:45;;;;;;;22.10;12.57;;;3.60;94.40;;;3.11;89.12;98214.13;5047250;28;20657;-72
2021/01/13 03:04:14;;;;;;;17.00;12.77;;;3.60;94.50;;;3.14;88.78;98216.56;5051743;28;20753;-72
2021/01/13 03:06:46;;;;;;;18.70;12.80;;;3.70;94.70;;;3.16;88.93;98213.94;5045836;28;21049;-72
2021/01/13 03:09:15;;;;;;;16.30;11.57;;;3.70;94.70;;;3.19;89.34;98213.81;5045726;28;20683;-72
2021/01/13 03:11:44;;;;;;;21.33;12.13;;;3.70;94.80;;;3.21;89.92;98222.34;5049472;28;20966;-72
2021/01/13 03:14:16;;;;;;;16.03;11.20;;;3.70;94.90;;;3.22;90.04;98213.69;5043756;28;21058;-72
2021/01/13 03:17:03;;;;;;;16.00;11.37;;;3.80;95.00;;;3.25;89.70;98217.03;5043866;28;20629;-72
2021/01/13 03:19:50;;;;;;;14.83;11.03;;;3.80;95.00;;;3.29;90.37;98221.13;5046192;28;20702;-72
2021/01/13 03:22:26;;;;;;;14.53;10.90;;;3.80;95.10;;;3.32;89.82;98218.44;5050719;28;20690;-72
2021/01/13 03:25:01;;;;;;;15.50;11.40;;;3.80;95.00;;;3.36;89.41;98213.13;5081997;28;21021;-72
2021/01/13 03:27:33;;;;;;;17.40;11.87;;;3.90;94.90;;;3.38;89.88;98211.34;5048729;28;21075;-72
2021/01/13 03:30:03;;;;;;;16.30;11.60;;;3.90;94.80;;;3.43;88.78;98214.56;5048504;28;20633;-72
2021/01/13 03:33:04;;;;;;;16.47;10.93;;;3.90;94.70;;;3.47;89.48;98223.03;5048573;28;20663;-72
2021/01/13 03:35:42;;;;;;;15.10;11.60;;;4.00;94.60;;;3.47;89.18;98221.31;5047998;28;21052;-72
2021/01/13 03:38:14;;;;;;;15.73;11.07;;;4.00;94.50;;;3.47;89.44;98220.44;5051399;28;20652;-72
2021/01/13 03:40:44;;;;;;;15.20;10.50;;;4.00;94.50;;;3.45;89.08;98228.22;5049143;28;21045;-72
2021/01/13 03:43:18;;;;;;;14.17;10.53;;;4.00;94.50;;;3.49;89.17;98223.81;5050886;28;21244;-72
2021/01/13 03:45:49;;;;;;;15.40;11.50;;;4.00;94.50;;;3.52;89.13;98233.97;5039822;28;20743;-72
2021/01/13 03:48:46;;;;;;;14.20;10.93;;;4.00;94.90;;;3.54;88.98;98235.63;5049679;28;20636;-72
2021/01/13 03:51:45;;;;;;;13.80;10.50;;;4.10;94.60;;;3.58;88.81;98238.91;5049648;28;21019;-72
2021/01/13 03:54:13;;;;;;;17.07;10.00;;;4.10;94.50;;;3.57;88.07;98238.06;5045406;28;20735;-72
2021/01/13 03:57:01;;;;;;;13.83;10.30;;;4.00;94.30;;;3.53;89.20;98241.66;5046716;28;20637;-72
2021/01/13 03:59:45;;;;;;;20.30;15.23;;;4.00;94.20;;;3.45;87.96;98243.69;5047299;28;20630;-72
2021/01/13 04:02:18;;;;;;;21.87;15.83;;;3.90;94.20;;;3.42;88.92;98248.97;5049937;28;20755;-72
2021/01/13 04:05:23;;;;;;;18.43;13.03;;;3.90;94.30;;;3.38;88.28;98247.41;5045123;28;20632;-72
2021/01/13 04:07:51;;;;;;;18.23;12.37;;;3.90;94.20;;;3.34;87.97;98251.00;5026767;28;20728;-72
2021/01/13 04:10:19;;;;;;;15.57;12.33;;;3.90;93.80;;;3.34;87.32;98239.88;5045294;28;20706;-72
2021/01/13 04:12:57;;;;;;;15.33;12.07;;;3.90;93.80;;;3.32;88.17;98245.06;5046375;28;20622;-72
2021/01/13 04:15:37;;;;;;;14.93;11.77;;;3.80;93.70;;;3.31;87.58;98239.97;5050301;28;20668;-72
2021/01/13 04:18:08;;;;;;;13.43;11.37;;;3.90;93.90;;;3.30;88.72;98246.84;5050064;28;20628;-72
2021/01/13 04:20:38;;;;;;;17.33;10.47;;;3.90;94.00;;;3.29;88.39;98252.06;5050673;28;20628;-72
2021/01/13 04:23:06;;;;;;;15.00;12.00;;;3.80;94.20;;;3.26;89.10;98244.44;5050182;28;21045;-72
2021/01/13 04:25:34;;;;;;;17.80;12.43;;;3.80;94.20;;;3.24;89.07;98248.00;5047226;28;20748;-72
2021/01/13 04:28:04;;;;;;;16.07;11.80;;;3.80;94.10;;;3.19;88.93;98250.75;5043144;28;20750;-72
2021/01/13 04:30:33;;;;;;;17.17;12.90;;;3.80;94.10;;;3.18;88.15;98248.22;5034150;28;20963;-72
2021/01/13 04:33:01;;;;;;;17.30;13.53;;;3.80;94.10;;;3.24;88.12;98250.56;5047001;28;20827;-72
2021/01/13 04:35:30;;;;;;;19.60;12.93;;;3.80;94.00;;;3.29;88.19;98255.50;5039773;28;21109;-72
2021/01/13 04:37:59;;;;;;;17.43;11.70;;;3.80;94.00;;;3.35;87.96;98246.69;5047349;28;20750;-72
2021/01/13 04:40:35;;;;;;;19.53;12.63;;;3.80;93.90;;;3.28;87.79;98250.41;5048521;28;21105;-72
2021/01/13 04:43:06;;;;;;;17.07;11.60;;;3.80;93.90;;;3.25;88.47;98254.81;5036109;28;20688;-72
2021/01/13 04:45:45;;;;;;;15.17;11.73;;;3.80;94.40;;;3.20;89.03;98262.69;5048064;28;20717;-72
2021/01/13 04:48:15;;;;;;;18.97;12.33;;;3.70;94.50;;;3.22;88.64;98271.22;5050410;28;20663;-72
2021/01/13 04:50:44;;;;;;;18.57;12.90;;;3.80;94.30;;;3.24;88.60;98263.44;5047144;28;21261;-72
2021/01/13 04:53:14;;;;;;;17.90;12.73;;;3.80;94.10;;;3.29;88.30;98272.66;5066588;28;20624;-72
2021/01/13 04:55:49;;;;;;;19.20;12.13;;;3.80;94.10;;;3.31;89.00;98274.31;5045394;28;20651;-72
2021/01/13 04:59:13;;;;;;;14.07;10.90;;;3.80;94.30;;;3.34;88.57;98269.03;5048888;28;20636;-72
2021/01/13 05:02:05;;;;;;;18.17;12.43;;;3.90;94.30;;;3.41;89.50;98274.78;5046957;28;20702;-72
2021/01/13 05:05:00;;;;;;;19.83;11.20;;;3.90;94.40;;;3.44;88.61;98283.28;5042945;28;20636;-72
2021/01/13 05:07:38;;;;;;;14.83;10.20;;;4.00;94.70;;;3.46;88.78;98278.06;5041303;28;20695;-72
2021/01/13 05:10:15;;;;;;;17.13;11.63;;;4.00;94.30;;;3.47;88.95;98278.00;5037731;28;20681;-72
2021/01/13 05:12:53;;;;;;;16.83;10.73;;;4.00;94.40;;;3.48;89.07;98276.25;5049354;28;21174;-72
2021/01/13 05:15:24;;;;;;;16.63;10.17;;;4.00;94.40;;;3.47;89.22;98278.00;5045857;28;20994;-72
2021/01/13 05:18:07;;;;;;;18.80;11.43;;;4.00;94.40;;;3.48;89.44;98284.81;5042775;28;20739;-72
2021/01/13 05:20:38;;;;;;;15.57;11.40;;;4.00;94.40;;;3.53;89.72;98285.47;5039581;28;21069;-72
2021/01/13 05:23:08;;;;;;;15.20;10.87;;;4.10;94.50;;;3.54;89.17;98289.75;5040515;28;20739;-72
2021/01/13 05:25:48;;;;;;;13.87;10.60;;;4.10;94.50;;;3.57;88.52;98287.06;5048349;28;20655;-72
2021/01/13 05:28:20;;;;;;;12.63;10.60;;;4.10;94.40;;;3.62;88.39;98284.31;5049754;28;20651;-72
2021/01/13 05:30:51;;;;;;;13.30;10.20;;;4.10;94.30;;;3.63;88.58;98289.41;5044652;28;20731;-72
2021/01/13 05:33:21;;;;;;;14.03;11.27;;;4.20;94.40;;;3.67;88.69;98285.81;5044566;28;20625;-72
2021/01/13 05:35:52;;;;;;;15.03;11.00;;;4.20;94.20;;;3.68;88.80;98281.50;5047859;28;20632;-72
2021/01/13 05:38:26;;;;;;;15.73;11.47;;;4.20;94.10;;;3.71;88.20;98286.53;5043918;28;21172;-72
2021/01/13 05:40:55;;;;;;;12.40;10.10;;;4.20;94.10;;;3.73;88.46;98288.16;5048319;28;20751;-72
2021/01/13 05:43:23;;;;;;;15.03;11.20;;;4.30;94.20;;;3.73;88.68;98280.44;5050380;28;21195;-72
2021/01/13 05:45:51;;;;;;;13.97;9.87;;;4.30;94.20;;;3.75;88.48;98274.28;5048668;28;20661;-72
2021/01/13 05:48:25;;;;;;;11.97;9.87;;;4.30;94.20;;;3.76;88.65;98282.88;5041399;28;20664;-72
2021/01/13 05:50:57;;;;;;;14.60;11.00;;;4.30;94.10;;;3.75;87.91;98268.31;5050468;28;20751;-72
2021/01/13 05:53:26;;;;;;;15.53;10.43;;;4.30;93.90;;;3.70;87.40;98272.81;5036142;28;20628;-72
2021/01/13 05:55:56;;;;;;;15.10;11.17;;;4.30;93.80;;;3.72;87.77;98272.75;5052202;28;21179;-72
2021/01/13 05:58:27;;;;;;;16.10;10.93;;;4.30;93.80;;;3.71;88.09;98271.88;5049287;28;21135;-72
2021/01/13 06:00:57;;;;;;;15.50;11.47;;;4.30;93.70;;;3.61;87.79;98280.91;5075612;28;20631;-72
2021/01/13 06:03:28;;;;;;;16.53;10.13;;;4.20;93.40;;;3.61;87.79;98275.75;5050489;28;20694;-72
2021/01/13 06:05:58;;;;;;;14.40;9.90;;;4.20;93.40;;;3.61;87.72;98274.88;5034259;28;20621;-72
2021/01/13 06:08:29;;;;;;;10.97;8.63;;;4.20;93.50;;;3.59;87.43;98272.34;5046451;28;20672;-72
2021/01/13 06:11:00;;;;;;;17.27;10.90;;;4.10;93.50;;;3.54;87.51;98274.28;5050750;28;21272;-72
2021/01/13 06:13:34;;;;;;;16.87;10.70;;;4.10;93.40;;;3.52;87.08;98276.09;5049166;28;20644;-72
2021/01/13 06:16:04;;;;;;;21.53;13.90;;;4.10;93.40;;;3.49;87.10;98273.63;5052984;28;20664;-72
2021/01/13 06:18:35;;;;;;;24.73;14.00;;;4.10;93.30;;;3.43;86.88;98271.28;5046964;28;20660;-72
2021/01/13 06:21:12;;;;;;;24.77;15.30;;;4.00;93.20;;;3.41;86.79;98267.06;5050802;28;20643;-72
2021/01/13 06:23:46;;;;;;;20.77;12.37;;;4.00;93.20;;;3.35;86.80;98273.31;5052877;28;20656;-72
2021/01/13 06:26:16;;;;;;;16.03;10.73;;;3.90;93.20;;;3.33;87.11;98277.66;5034183;28;20656;-72
2021/01/13 06:29:42;;;;;;;14.73;10.20;;;3.90;93.20;;;3.28;86.76;98281.31;5046507;28;20639;-72
2021/01/13 06:32:19;;;;;;;26.73;19.10;;;3.90;93.10;;;3.29;87.43;98283.84;5049314;28;20652;-72
2021/01/13 06:35:03;;;;;;;15.73;11.77;;;3.80;93.10;;;3.26;86.64;98277.09;5045588;28;21035;-75
2021/01/13 06:37:48;;;;;;;23.80;16.80;;;3.90;93.20;;;3.15;86.95;98274.91;5046340;28;20664;-72
2021/01/13 06:40:17;;;;;;;17.90;11.10;;;3.80;93.60;;;3.09;87.33;98279.47;5050606;28;21050;-72
2021/01/13 06:42:46;;;;;;;17.10;14.50;;;3.70;93.10;;;3.03;87.65;98275.34;5045945;28;20668;-72
2021/01/13 06:45:30;;;;;;;19.10;13.97;;;3.60;93.40;;;3.09;87.91;98279.47;5046883;28;20660;-72
2021/01/13 06:47:58;;;;;;;20.67;11.77;;;3.60;93.40;;;3.10;87.48;98281.16;5051758;28;20690;-72
2021/01/13 06:50:34;;;;;;;17.00;11.77;;;3.70;93.40;;;3.11;87.72;98290.53;5048919;28;20693;-72
2021/01/13 06:53:07;;;;;;;15.53;12.17;;;3.70;93.70;;;3.08;87.99;98288.94;5043927;28;20674;-73
2021/01/13 06:55:36;;;;;;;20.77;12.87;;;3.70;93.50;;;3.07;87.32;98287.25;5046917;28;20636;-72
2021/01/13 06:58:11;;;;;;;14.17;10.47;;;3.60;93.30;;;3.07;87.03;98299.28;5050517;28;20616;-72
2021/01/13 07:00:39;;;;;;;16.77;11.50;;;3.60;93.30;;;3.06;87.48;98297.59;5049784;28;20680;-72
2021/01/13 07:03:27;;;;;;;18.40;13.07;;;3.60;93.30;;;3.04;86.67;98305.38;5049295;28;20648;-72
2021/01/13 07:05:55;;;;;;;19.00;12.00;;;3.60;93.20;;;2.98;86.24;98294.47;5047677;28;20702;-72
2021/01/13 07:08:23;;;;;;;23.50;11.33;;;3.60;93.00;;;2.98;86.36;98297.88;5047581;28;20710;-72
2021/01/13 07:11:02;;;;;;;15.67;10.47;;;3.60;92.70;;;3.01;85.70;98295.19;5041793;28;20644;-72
2021/01/13 07:13:33;;;;;;;14.70;10.00;;;3.60;92.50;;;2.98;85.13;98291.88;5051891;28;20609;-72
2021/01/13 07:16:03;;;;;;;15.90;10.00;;;3.60;92.60;;;2.97;86.26;98298.75;5050358;28;20624;-72
2021/01/13 07:18:32;;;;;;;15.70;9.73;;;3.50;92.50;;;2.99;86.56;98302.13;5033522;28;20609;-74
2021/01/13 07:21:06;;;;;;;17.23;9.37;;;3.50;92.80;;;2.98;86.55;98297.88;5052442;28;20637;-72
2021/01/13 07:23:34;;;;;;;12.80;8.90;;;3.60;92.80;;;3.00;87.02;98298.66;5047665;28;21022;-72
2021/01/13 07:26:02;;;;;;;13.60;9.30;;;3.60;92.90;;;3.03;86.78;98301.13;5048847;28;20690;-72
2021/01/13 07:28:36;;;;;;;15.37;9.83;;;3.60;93.00;;;3.06;87.07;98300.19;5048915;28;21133;-72
2021/01/13 07:31:06;;;;;;;18.40;13.57;;;3.60;92.90;;;3.07;87.02;98304.44;5043814;28;20624;-72
2021/01/13 07:33:37;;;;;;;18.70;13.60;;;3.60;92.90;;;3.09;86.71;98306.03;5052182;28;21176;-72
2021/01/13 07:36:06;;;;;;;23.03;14.90;;;3.70;93.00;;;3.15;86.30;98317.88;5042236;28;20625;-72
2021/01/13 07:38:34;;;;;;;15.20;12.43;;;3.70;92.90;;;3.18;85.74;98321.19;5048798;28;20643;-72
2021/01/13 07:41:06;;;;;;;18.27;9.93;;;3.70;92.70;;;3.13;85.83;98323.09;5051734;28;20640;-72
2021/01/13 07:44:17;;;;;;;16.73;10.20;;;3.70;92.40;;;3.11;85.55;98331.75;5050841;28;20710;-72
2021/01/13 07:47:03;;;;;;;21.77;14.17;;;3.70;92.60;;;3.04;85.69;98331.13;5039111;28;20698;-71
2021/01/13 07:49:47;;;;;;;18.67;11.33;;;3.60;92.40;;;3.02;85.51;98329.50;5047521;28;20620;-71
2021/01/13 07:52:18;;;;;;;16.43;9.87;;;3.60;92.30;;;3.03;85.10;98336.34;5042482;28;20681;-71
2021/01/13 07:54:49;;;;;;;15.90;10.67;;;3.60;92.10;;;3.07;85.33;98338.75;5044316;28;20614;-71
2021/01/13 07:57:24;;;;;;;18.33;10.27;;;3.60;92.20;;;3.16;85.33;98341.00;5051498;28;20631;-71
2021/01/13 08:00:07;;;;;;;14.57;10.50;;;3.70;92.10;;;3.24;85.75;98340.75;5049771;28;20675;-71
2021/01/13 08:03:35;;;;;;;14.10;9.80;;;3.70;92.40;;;3.35;85.54;98342.00;5051263;28;20640;-71
2021/01/13 08:06:32;;;;;;;17.40;10.73;;;3.80;92.80;;;3.41;85.59;98345.25;5047820;28;20705;-71
2021/01/13 08:09:12;;;;;;;20.43;11.27;;;3.90;92.60;;;3.45;85.66;98351.94;5048139;28;20698;-71
2021/01/13 08:12:49;;;;;;;22.90;10.90;;;3.90;92.60;;;3.44;85.23;98352.84;5051410;28;20687;-71
2021/01/13 08:15:55;;;;;;;19.60;11.50;;;4.00;92.10;;;3.42;84.87;98344.31;5063824;28;20648;-71
2021/01/13 08:19:35;;;;;;;18.27;10.20;;;4.00;92.00;;;3.47;85.76;98344.16;5041692;28;21211;-71
2021/01/13 08:22:33;;;;;;;18.97;10.63;;;4.00;92.20;;;3.52;84.72;98350.84;5044463;28;20747;-71
2021/01/13 08:25:28;;;;;;;;;;;;;;;;;;;;;
2021/01/13 08:27:59;;;;;;;34.53;20.43;;;4.00;92.10;;;3.54;84.93;98354.19;5046481;28;20736;-71
2021/01/13 08:30:30;;;;;;;26.67;22.90;;;4.00;92.10;;;3.54;85.00;98356.75;5047866;28;20656;-72
2021/01/13 08:33:00;;;;;;;22.37;17.10;;;4.00;92.10;;;3.65;85.10;98370.09;5041092;28;20644;-72
2021/01/13 08:35:34;;;;;;;21.10;12.27;;;4.10;92.50;;;3.73;85.65;98368.91;5042765;28;20651;-74
2021/01/13 08:38:11;;;;;;;23.17;11.23;;;4.10;92.30;;;3.73;84.54;98357.78;5045475;28;21272;-72
2021/01/13 08:40:40;;;;;;;17.40;10.30;;;4.20;92.00;;;3.76;83.80;98370.56;5044743;28;20632;-75
2021/01/13 08:43:12;;;;;;;19.57;11.30;;;4.20;91.80;;;3.76;84.31;98366.22;5049808;28;20660;-74
2021/01/13 08:45:42;;;;;;;22.80;12.57;;;4.20;91.90;;;3.83;83.95;98372.00;5048038;28;20656;-72
2021/01/13 08:48:14;;;;;;;19.37;11.10;;;4.30;92.00;;;3.96;84.56;98373.22;5046094;28;20624;-72
2021/01/13 08:50:43;;;;;;;17.80;10.97;;;4.40;92.00;;;4.10;84.39;98378.69;5052105;28;20662;-73
2021/01/13 08:53:24;;;;;;;17.43;11.30;;;4.50;92.10;;;4.14;84.02;98385.44;5050966;28;20621;-71
2021/01/13 08:55:53;;;;;;;20.00;13.00;;;4.60;91.80;;;4.24;84.58;98387.59;5041639;28;20628;-71
2021/01/13 08:58:32;;;;;;;20.03;11.13;;;4.60;91.90;;;4.35;84.48;98388.84;5064899;28;20639;-71
2021/01/13 09:01:02;;;;;;;24.50;14.73;;;4.80;92.10;;;4.62;83.63;98382.59;5046733;28;20726;-71
2021/01/13 09:03:36;;;;;;;17.97;12.30;;;5.00;92.30;;;4.76;83.65;98388.84;5039146;28;20656;-72
2021/01/13 09:06:20;;;;;;;15.00;11.60;;;5.10;91.80;;;4.73;83.00;98383.81;5045801;28;20633;-72
2021/01/13 09:08:50;;;;;;;19.20;11.63;;;5.20;91.50;;;4.99;83.79;98387.91;5045055;28;21179;-72
2021/01/13 09:11:32;;;;;;;19.90;14.30;;;5.30;91.70;;;5.05;83.87;98388.53;5051126;28;20616;-71
2021/01/13 09:14:20;;;;;;;20.30;14.50;;;5.40;91.50;;;4.83;83.40;98379.13;5046477;28;21211;-71
2021/01/13 09:16:49;;;;;;;19.33;13.47;;;5.30;91.10;;;4.69;83.24;98377.13;5037628;28;20678;-71
2021/01/13 09:19:38;;;;;;;20.97;14.80;;;5.20;90.90;;;4.69;84.27;98386.59;5045907;28;21179;-71
2021/01/13 09:22:07;;;;;;;25.47;17.40;;;5.20;91.10;;;4.80;83.45;98374.09;5041974;28;21301;-71
2021/01/13 09:24:38;;;;;;;23.50;15.70;;;5.20;91.40;;;4.86;83.75;98379.00;5040341;28;20637;-71
2021/01/13 09:27:09;;;;;;;25.87;18.53;;;5.30;91.40;;;4.93;83.33;98380.41;5049341;28;20670;-71
2021/01/13 09:29:49;;;;;;;23.70;18.10;;;5.30;91.10;;;4.96;82.57;98388.91;5055503;28;20632;-71
2021/01/13 09:32:19;;;;;;;24.43;16.27;;;5.30;91.00;;;4.94;83.65;98384.69;5053632;28;20647;-71
2021/01/13 09:34:50;;;;;;;22.30;14.47;;;5.30;90.90;;;4.96;83.36;98391.50;5055051;28;20628;-71
2021/01/13 09:37:19;;;;;;;20.33;14.90;;;5.40;91.20;;;4.96;83.15;98390.63;5054987;28;20604;-71
2021/01/13 09:39:59;;;;;;;22.10;16.90;;;5.30;90.90;;;4.98;82.82;98394.00;5054519;28;20648;-71
2021/01/13 09:42:38;;;;;;;23.10;15.33;;;5.40;91.00;;;4.98;83.75;98388.84;5054589;28;21268;-71
2021/01/13 09:45:08;;;;;;;18.93;15.80;;;5.40;91.10;;;5.15;83.52;98387.22;5053151;28;20628;-71
2021/01/13 09:47:37;;;;;;;22.13;14.67;;;5.50;91.30;;;5.29;82.46;98390.91;5052486;28;20632;-71
2021/01/13 09:50:10;;;;;;;24.33;17.30;;;5.60;91.20;;;5.56;82.44;98389.69;5054467;28;20998;-71
2021/01/13 09:52:41;;;;;;;24.90;16.83;;;5.90;91.40;;;5.87;81.85;98397.81;5053364;28;20997;-71
2021/01/13 09:55:11;;;;;;;17.50;13.00;;;6.10;91.10;;;5.89;81.15;98396.81;5055037;28;21001;-71
2021/01/13 09:57:40;;;;;;;17.23;11.83;;;6.20;90.40;;;5.88;81.00;98392.56;5054197;28;20637;-71
2021/01/13 10:00:10;;;;;;;20.30;13.27;;;6.20;90.10;;;5.79;80.03;98397.31;5054811;28;20624;-71
2021/01/13 10:02:48;;;;;;;28.93;13.30;;;6.10;88.70;;;5.70;80.09;98387.34;5053805;28;20733;-71
2021/01/13 10:05:17;;;;;;;17.30;11.33;;;6.10;88.60;;;5.64;80.48;98390.22;5054256;28;20663;-71
2021/01/13 10:07:51;;;;;;;19.80;12.37;;;6.00;88.90;;;5.56;81.86;98387.09;5053648;28;21196;-71
2021/01/13 10:10:24;;;;;;;17.77;11.43;;;6.00;90.00;;;5.46;81.55;98375.50;5046936;28;20621;-71
2021/01/13 10:12:54;;;;;;;18.67;10.63;;;5.90;90.10;;;5.40;81.62;98380.94;5046750;28;20636;-71
2021/01/13 10:15:23;;;;;;;15.37;8.60;;;5.80;89.90;;;5.36;81.39;98376.78;5048434;28;20636;-71
2021/01/13 10:17:51;;;;;;;15.40;11.20;;;5.80;89.50;;;5.38;81.58;98375.00;5049454;28;20674;-71
2021/01/13 10:20:24;;;;;;;14.87;9.70;;;5.80;90.00;;;5.40;82.11;98373.16;5053195;28;20631;-71
2021/01/13 10:22:52;;;;;;;16.33;10.47;;;5.80;90.30;;;5.43;82.80;98369.63;5053440;28;20648;-71
2021/01/13 10:25:28;;;;;;;14.13;9.30;;;5.80;90.30;;;5.42;82.11;98373.94;5051294;28;20629;-71
2021/01/13 10:27:58;;;;;;;10.47;9.03;;;5.80;90.40;;;5.42;82.43;98371.34;5052443;28;20659;-73
2021/01/13 10:30:27;;;;;;;12.07;9.20;;;5.90;90.40;;;5.42;81.58;98367.94;5052897;28;20635;-72
2021/01/13 10:32:57;;;;;;;14.20;10.90;;;5.80;90.10;;;5.46;81.55;98364.28;5051082;28;20629;-74
2021/01/13 10:35:38;;;;;;;19.90;11.37;;;5.90;89.70;;;5.48;81.89;98372.84;5049525;28;20625;-73
2021/01/13 10:38:06;;;;;;;13.70;10.47;;;5.90;90.00;;;5.44;82.11;98372.16;5051758;28;20639;-72
2021/01/13 10:40:34;;;;;;;17.33;11.80;;;5.90;90.10;;;5.44;82.18;98360.94;5049352;28;20650;-70
2021/01/13 10:43:10;;;;;;;20.90;11.43;;;5.90;90.30;;;5.43;82.12;98357.53;5047614;28;20644;-70
2021/01/13 10:45:41;;;;;;;17.10;12.00;;;5.90;90.30;;;5.46;82.19;98357.41;5049201;28;20628;-70
2021/01/13 10:48:10;;;;;;;16.80;10.70;;;5.90;90.40;;;5.48;82.72;98359.91;5052784;28;20639;-70
2021/01/13 10:50:44;;;;;;;14.80;9.67;;;5.90;90.30;;;5.52;82.48;98357.13;5050340;28;20616;-70
2021/01/13 10:53:12;;;;;;;16.10;11.80;;;6.00;90.40;;;5.55;81.82;98357.00;5048322;28;20624;-70
2021/01/13 10:55:45;;;;;;;18.07;12.37;;;5.90;90.00;;;5.51;81.03;98349.44;5050479;28;21157;-72
2021/01/13 10:58:20;;;;;;;13.00;10.17;;;5.90;89.40;;;5.58;81.42;98351.69;5046588;28;20628;-72